Akron, CO

12:50 AM MST on February 13, 2016 (GMT -0700)
Akron-Washington County | | Change Station
CLOSE
Current Station
Airport
Location: Akron,
Elevation: 4662 ft
Nearby Weather Stations

Elev 4662 ft 40.17 °N, 103.21 °W | Updated 21 minutes ago

Fog
Fog
30 °F
Feels Like 17 °F
N
23
Wind Variable Wind from South
Gusts 31 mph

Today
High -- | Low -- °F
--% Chance of Precip.
Yesterday
High -- | Low -- °F
Precip. -- in
Pressure 30.22 in
Visibility 4.0 miles
Clouds Overcast 200 ft
Windchill 17 °F
Dew Point 30 °F
Humidity 100%
Rainfall 0.00 in
Snow Depth Not available.
6:49 AM 5:25 PM
Waxing Crescent, 28% visible
SPECI KAKO 130729Z AUTO 17020G27KT 4SM BR OVC002 M01/M01 A3022 RMK AO2 PK WND 16027/0728 T10111011
Pressure 30.22 in
Visibility 4.0 miles
Clouds Overcast 200 ft
Windchill 17 °F
Dew Point 30 °F
Humidity 100%
Rainfall 0.00 in
Snow Depth Not available.
6:49 AM 5:25 PM
Waxing Crescent, 28% visible
SPECI KAKO 130729Z AUTO 17020G27KT 4SM BR OVC002 M01/M01 A3022 RMK AO2 PK WND 16027/0728 T10111011

10-Day Weather Forecast

Almanac

Astronomy

Feb. 13, 2016 Rise Set
Actual Time
Civil Twilight
Nautical Twilight
Astronomical Twilight
Moon
Length of Visible Light
Length of Day
Tomorrow will be .
, % of the Moon is Illuminated

Today's Extremes

State Highs State Lows

Community

WunderPhotos

Upload Photos

1,892,526 photos uploaded!

WunderBlog® & News

Nearby

Air Quality

  Air Quality AQ Index Pollutant
Not available.

Snow Depth

Station Depth Elevation

Earthquake Activity

City Distance Mag. Time & Date
Minimum magnitude displayed is 2.5.

Coastal Water Temperatures

Place Temperature

Stations

Nearby Weather Stations

Station Location Temp. Windchill Dew Point Humidity Wind Precip. Elev Updated Type
                   

Watches & Warnings

There are currently no watches in effect.